Time;durP1;ratioP1;P1;durP2;ratioP2;P2;SDS_P1;SDS_P2;PMS_P1;PMS_P2;Temp;Humidity;BMP_temperature;BMP_pressure;BME280_temperature;BME280_humidity;BME280_pressure;Samples;Min_cycle;Max_cycle;Signal;HPM_P1;HPM_P2
2022/03/23 00:00:15;;;;;;;14.70;12.87;;;4.90;99.90;;;;;;4997283;28;20198;-75
2022/03/23 00:02:42;;;;;;;15.23;13.63;;;4.90;99.90;;;;;;5003125;28;20213;-75
2022/03/23 00:05:10;;;;;;;14.57;12.30;;;4.90;99.90;;;;;;4995310;28;20201;-75
2022/03/23 00:07:37;;;;;;;13.90;12.47;;;4.90;99.90;;;;;;5002337;28;20276;-75
2022/03/23 00:10:05;;;;;;;14.63;12.70;;;4.80;99.90;;;;;;5003890;28;20200;-75
2022/03/23 00:12:32;;;;;;;14.17;12.67;;;4.80;99.90;;;;;;5013470;28;20767;-74
2022/03/23 00:14:59;;;;;;;15.77;12.87;;;4.80;99.90;;;;;;5004277;28;20677;-74
2022/03/23 00:17:26;;;;;;;14.10;12.60;;;4.80;99.90;;;;;;4996328;28;20213;-74
2022/03/23 00:19:52;;;;;;;15.07;13.57;;;4.80;99.90;;;;;;5003757;28;20220;-75
2022/03/23 00:22:25;;;;;;;13.90;12.40;;;4.70;99.90;;;;;;4994783;28;20283;-74
2022/03/23 00:24:51;;;;;;;15.30;12.63;;;4.60;99.90;;;;;;5002780;28;20526;-74
2022/03/23 00:27:18;;;;;;;14.43;12.90;;;4.50;99.90;;;;;;5000984;28;20662;-75
2022/03/23 00:29:45;;;;;;;14.43;13.03;;;4.50;99.90;;;;;;5000002;28;20270;-74
2022/03/23 00:32:14;;;;;;;13.50;12.20;;;4.50;99.90;;;;;;5001337;28;20626;-75
2022/03/23 00:34:41;;;;;;;14.93;13.27;;;4.50;99.90;;;;;;4996981;28;20287;-75
2022/03/23 00:37:07;;;;;;;13.37;12.00;;;4.40;99.90;;;;;;5002387;28;20196;-75
2022/03/23 00:39:36;;;;;;;14.60;12.50;;;4.40;99.90;;;;;;4996931;28;20199;-75
2022/03/23 00:42:02;;;;;;;15.10;12.63;;;4.30;99.90;;;;;;5002486;28;20224;-75
2022/03/23 00:44:30;;;;;;;14.97;12.60;;;4.30;99.90;;;;;;4995222;28;20200;-75
2022/03/23 00:46:57;;;;;;;14.60;12.50;;;4.30;99.90;;;;;;5002977;28;20665;-75
2022/03/23 00:49:24;;;;;;;14.67;12.87;;;4.30;99.90;;;;;;5007612;28;20201;-75
2022/03/23 00:51:53;;;;;;;15.43;13.27;;;4.20;99.90;;;;;;5000069;28;20221;-75
2022/03/23 00:54:21;;;;;;;17.27;14.00;;;4.30;99.90;;;;;;5017149;28;20204;-75
2022/03/23 00:56:51;;;;;;;18.73;14.90;;;4.20;99.90;;;;;;4999703;28;20894;-75
2022/03/23 00:59:18;;;;;;;20.87;15.73;;;4.10;99.90;;;;;;5015943;28;20216;-74
2022/03/23 01:01:45;;;;;;;21.07;16.60;;;4.10;99.90;;;;;;5004425;28;20278;-74
2022/03/23 01:04:12;;;;;;;19.30;15.00;;;4.00;99.90;;;;;;5008918;28;20792;-74
2022/03/23 01:06:39;;;;;;;19.97;15.50;;;3.90;99.90;;;;;;4999473;28;20845;-74
2022/03/23 01:09:07;;;;;;;16.40;14.50;;;3.80;99.90;;;;;;5023349;28;20539;-74
2022/03/23 01:11:34;;;;;;;16.37;14.27;;;3.80;99.90;;;;;;5015081;28;20488;-75
2022/03/23 01:14:02;;;;;;;18.97;14.60;;;3.80;99.90;;;;;;5014958;28;20203;-74
2022/03/23 01:16:29;;;;;;;15.97;14.27;;;3.80;99.90;;;;;;5002957;28;20643;-75
2022/03/23 01:18:56;;;;;;;18.00;14.00;;;3.70;99.90;;;;;;4999529;28;20221;-74
2022/03/23 01:21:23;;;;;;;15.27;12.97;;;3.70;99.90;;;;;;4999102;28;20239;-75
2022/03/23 01:23:50;;;;;;;14.33;12.93;;;3.60;99.90;;;;;;5000023;28;20452;-74
2022/03/23 01:26:17;;;;;;;14.67;12.67;;;3.50;99.90;;;;;;5012868;28;20441;-75
2022/03/23 01:28:44;;;;;;;13.27;11.97;;;3.40;99.90;;;;;;5003472;28;20433;-75
2022/03/23 01:31:12;;;;;;;14.50;12.90;;;3.30;99.90;;;;;;5010477;28;20514;-75
2022/03/23 01:33:39;;;;;;;15.97;12.90;;;3.20;99.90;;;;;;5019156;28;20511;-74
2022/03/23 01:36:06;;;;;;;15.10;13.60;;;3.10;99.90;;;;;;5004136;28;20444;-74
2022/03/23 01:38:33;;;;;;;15.50;12.93;;;3.00;99.90;;;;;;5007176;28;20475;-74
2022/03/23 01:41:00;;;;;;;16.40;13.93;;;2.90;99.90;;;;;;5004908;28;20483;-74
2022/03/23 01:43:26;;;;;;;19.70;15.33;;;2.80;99.90;;;;;;5002272;28;20448;-74
2022/03/23 01:45:54;;;;;;;19.50;15.33;;;2.80;99.90;;;;;;5018812;28;20444;-74
2022/03/23 01:48:23;;;;;;;20.87;16.73;;;2.80;99.90;;;;;;5005718;28;20472;-75
2022/03/23 01:50:50;;;;;;;18.60;16.23;;;2.80;99.90;;;;;;5006522;28;20460;-74
2022/03/23 01:53:17;;;;;;;19.20;15.77;;;2.80;99.90;;;;;;5004660;28;20427;-74
2022/03/23 01:55:44;;;;;;;18.60;15.47;;;2.90;99.90;;;;;;5000324;28;20444;-75
2022/03/23 01:58:11;;;;;;;22.90;18.77;;;2.90;99.90;;;;;;5003452;28;20466;-74
2022/03/23 02:00:45;;;;;;;21.27;17.80;;;2.90;99.90;;;;;;5016473;28;20478;-73
2022/03/23 02:03:12;;;;;;;21.47;17.33;;;2.90;99.90;;;;;;5020539;28;20447;-75
2022/03/23 02:05:41;;;;;;;22.97;18.87;;;2.90;99.90;;;;;;5015230;28;20451;-75
2022/03/23 02:08:08;;;;;;;21.97;16.50;;;3.00;99.90;;;;;;5019975;28;20460;-75
2022/03/23 02:10:35;;;;;;;21.73;17.17;;;3.00;99.90;;;;;;5019478;28;20479;-75
2022/03/23 02:13:13;;;;;;;23.20;18.73;;;2.90;99.90;;;;;;5021390;28;20507;-75
2022/03/23 02:15:40;;;;;;;22.60;18.43;;;2.90;99.90;;;;;;5008175;28;20448;-75
2022/03/23 02:18:07;;;;;;;26.27;19.47;;;2.90;99.90;;;;;;5011252;28;20892;-75
2022/03/23 02:20:37;;;;;;;27.87;19.03;;;2.90;99.90;;;;;;5017992;28;20474;-75
2022/03/23 02:23:05;;;;;;;25.17;19.07;;;2.90;99.90;;;;;;5017817;28;20901;-75
2022/03/23 02:25:33;;;;;;;22.27;17.70;;;2.90;99.90;;;;;;5018066;28;20436;-74
2022/03/23 02:28:00;;;;;;;24.20;18.27;;;2.90;99.90;;;;;;5003471;28;20436;-74
2022/03/23 02:30:27;;;;;;;22.83;16.90;;;2.90;99.90;;;;;;5002803;28;20463;-74
2022/03/23 02:32:54;;;;;;;19.80;15.93;;;3.00;99.90;;;;;;5002536;28;20498;-75
2022/03/23 02:35:21;;;;;;;18.73;16.00;;;3.00;99.90;;;;;;5010681;28;20435;-74
2022/03/23 02:37:48;;;;;;;26.33;18.17;;;2.90;99.90;;;;;;5001904;28;20861;-74
2022/03/23 02:40:16;;;;;;;22.60;16.83;;;3.00;99.90;;;;;;5020083;28;20455;-73
2022/03/23 02:42:43;;;;;;;20.43;16.97;;;3.00;99.90;;;;;;5002536;28;20448;-75
2022/03/23 02:45:13;;;;;;;20.60;16.83;;;3.00;99.90;;;;;;5004146;28;20443;-75
2022/03/23 02:47:41;;;;;;;23.07;16.60;;;3.00;99.90;;;;;;5006854;28;20450;-75
2022/03/23 02:50:09;;;;;;;20.53;16.77;;;3.00;99.90;;;;;;5005607;28;20958;-74
2022/03/23 03:01:51;;;;;;;18.53;15.57;;;3.00;99.90;;;;;;5005858;28;20439;-75
2022/03/23 03:03:51;;;;;;;22.03;16.53;;;2.90;99.90;;;;;;5001948;28;20807;-74
2022/03/23 03:06:18;;;;;;;21.03;16.07;;;2.90;99.90;;;;;;5017351;28;20966;-75
2022/03/23 03:08:48;;;;;;;19.27;16.30;;;2.80;99.90;;;;;;5000557;28;20511;-75
2022/03/23 03:11:20;;;;;;;18.13;15.70;;;2.70;99.90;;;;;;5003490;28;21021;-74
2022/03/23 03:13:49;;;;;;;23.10;16.67;;;2.60;99.90;;;;;;5017017;28;20455;-74
2022/03/23 03:16:17;;;;;;;24.67;17.83;;;2.50;99.90;;;;;;5002846;28;20467;-75
2022/03/23 03:18:44;;;;;;;19.60;17.07;;;2.50;99.90;;;;;;5001306;28;20540;-74
2022/03/23 03:21:12;;;;;;;19.27;15.87;;;2.40;99.90;;;;;;5001643;28;21001;-75
2022/03/23 03:23:41;;;;;;;20.27;17.53;;;2.40;99.90;;;;;;5017066;28;20458;-75
2022/03/23 03:26:08;;;;;;;21.97;17.73;;;2.30;99.90;;;;;;5001111;28;20504;-74
2022/03/23 03:28:38;;;;;;;19.90;15.93;;;2.30;99.90;;;;;;5001531;28;20433;-75
2022/03/23 03:31:07;;;;;;;21.13;17.50;;;2.20;99.90;;;;;;5017021;28;20535;-74
2022/03/23 03:33:35;;;;;;;20.00;16.57;;;2.30;99.90;;;;;;5001537;28;20455;-74
2022/03/23 03:36:03;;;;;;;18.07;15.90;;;2.20;99.90;;;;;;5016710;28;20452;-75
2022/03/23 03:38:30;;;;;;;25.70;17.37;;;2.10;99.90;;;;;;4998744;28;20523;-75
2022/03/23 03:40:57;;;;;;;18.90;16.33;;;2.00;99.90;;;;;;5022499;28;20539;-75
2022/03/23 03:43:25;;;;;;;22.57;16.37;;;1.90;99.90;;;;;;5015094;28;20472;-75
2022/03/23 03:45:53;;;;;;;23.03;17.70;;;1.80;99.90;;;;;;5013258;28;20966;-76
2022/03/23 03:48:20;;;;;;;20.70;17.27;;;1.70;99.90;;;;;;5007533;28;20506;-75
2022/03/23 03:50:47;;;;;;;23.00;17.07;;;1.80;99.90;;;;;;5010388;28;20491;-75
2022/03/23 03:53:15;;;;;;;20.43;16.30;;;1.70;99.90;;;;;;5012672;28;20445;-75
2022/03/23 03:55:42;;;;;;;20.10;15.77;;;1.70;99.90;;;;;;5004519;28;20444;-75
2022/03/23 03:58:10;;;;;;;19.70;15.73;;;1.60;99.90;;;;;;5002763;28;20935;-75
2022/03/23 04:00:37;;;;;;;18.73;16.73;;;1.60;99.90;;;;;;5004870;28;20872;-75
2022/03/23 04:03:06;;;;;;;20.50;17.20;;;1.50;99.90;;;;;;5009139;28;20436;-75
2022/03/23 04:05:34;;;;;;;19.33;15.97;;;1.60;99.90;;;;;;5013743;28;20448;-77
2022/03/23 04:08:01;;;;;;;19.23;16.50;;;1.50;99.90;;;;;;5008801;28;20532;-76
2022/03/23 04:10:28;;;;;;;15.97;14.27;;;1.40;99.90;;;;;;5009959;28;21019;-75
2022/03/23 04:12:55;;;;;;;17.87;15.10;;;1.40;99.90;;;;;;5011433;28;20447;-78
2022/03/23 04:15:24;;;;;;;20.83;17.23;;;1.30;99.90;;;;;;5012744;28;20942;-77
2022/03/23 04:17:51;;;;;;;18.60;15.53;;;1.20;99.90;;;;;;5008943;28;20522;-77
2022/03/23 04:20:19;;;;;;;19.67;16.07;;;1.30;99.90;;;;;;5011363;28;20538;-78
2022/03/23 04:22:46;;;;;;;19.43;16.73;;;1.30;99.90;;;;;;5003797;28;20444;-77
2022/03/23 04:25:15;;;;;;;19.67;16.60;;;1.30;99.90;;;;;;5008762;28;20822;-77
2022/03/23 04:27:49;;;;;;;22.43;17.70;;;1.40;99.90;;;;;;4997262;28;20477;-76
2022/03/23 04:30:20;;;;;;;21.03;17.07;;;1.40;99.90;;;;;;5000719;28;20568;-76
2022/03/23 04:32:49;;;;;;;21.23;16.97;;;1.40;99.90;;;;;;4998464;28;20464;-76
2022/03/23 04:35:16;;;;;;;18.33;16.20;;;1.30;99.90;;;;;;4999252;28;20438;-77
2022/03/23 04:37:45;;;;;;;21.13;17.50;;;1.30;99.90;;;;;;4997499;28;20451;-77
2022/03/23 04:40:15;;;;;;;23.43;18.23;;;1.40;99.90;;;;;;5015769;28;20483;-76
2022/03/23 04:42:43;;;;;;;21.77;16.63;;;1.40;99.90;;;;;;4998678;28;20532;-76
2022/03/23 04:45:11;;;;;;;20.33;17.10;;;1.40;99.90;;;;;;5001374;28;20488;-76
2022/03/23 04:47:38;;;;;;;20.40;16.13;;;1.40;99.90;;;;;;5002214;28;20448;-76
2022/03/23 04:50:08;;;;;;;23.37;17.27;;;1.40;99.90;;;;;;5002118;28;20885;-76
2022/03/23 04:52:36;;;;;;;20.90;17.43;;;1.40;99.90;;;;;;5003452;28;20462;-76
2022/03/23 04:55:05;;;;;;;20.17;16.27;;;1.40;99.90;;;;;;4997450;28;20472;-76
2022/03/23 04:57:32;;;;;;;25.37;19.70;;;1.30;99.90;;;;;;5003006;28;20506;-76
2022/03/23 04:59:59;;;;;;;25.23;19.23;;;1.30;99.90;;;;;;4996010;28;20488;-76
2022/03/23 05:02:26;;;;;;;29.37;19.83;;;1.20;99.90;;;;;;5007031;28;20817;-76
2022/03/23 05:04:54;;;;;;;22.67;18.50;;;1.20;99.90;;;;;;5000152;28;20502;-76
2022/03/23 05:07:24;;;;;;;21.20;18.47;;;1.20;99.90;;;;;;5016046;28;20965;-75
2022/03/23 05:09:51;;;;;;;23.73;18.27;;;1.20;99.90;;;;;;5015284;28;20448;-76
2022/03/23 05:12:19;;;;;;;26.47;19.73;;;1.20;99.90;;;;;;5015604;28;20480;-76
2022/03/23 05:14:45;;;;;;;21.80;18.80;;;1.20;99.90;;;;;;5015321;28;20502;-76
2022/03/23 05:17:12;;;;;;;25.70;19.97;;;1.20;99.90;;;;;;5000925;28;20500;-76
2022/03/23 05:19:39;;;;;;;22.43;17.33;;;1.20;99.90;;;;;;4999790;28;20468;-76
2022/03/23 05:22:06;;;;;;;23.27;18.20;;;1.30;99.90;;;;;;4999435;28;20484;-76
2022/03/23 05:24:33;;;;;;;27.67;17.37;;;1.30;99.90;;;;;;5015175;28;20448;-76
2022/03/23 05:27:00;;;;;;;24.73;17.80;;;1.30;99.90;;;;;;4999368;28;20444;-76
2022/03/23 05:29:28;;;;;;;21.37;16.70;;;1.30;99.90;;;;;;5007865;28;20440;-76
2022/03/23 05:31:55;;;;;;;25.73;18.43;;;1.30;99.90;;;;;;4999979;28;20890;-76
2022/03/23 05:34:22;;;;;;;25.40;18.63;;;1.40;99.90;;;;;;5015491;28;20522;-76
2022/03/23 05:36:48;;;;;;;22.43;18.23;;;1.40;99.90;;;;;;4999130;28;20451;-77
2022/03/23 05:39:15;;;;;;;22.13;17.23;;;1.40;99.90;;;;;;5015418;28;20483;-76
2022/03/23 05:41:42;;;;;;;22.93;18.07;;;1.50;99.90;;;;;;4999759;28;21005;-76
2022/03/23 05:44:09;;;;;;;20.37;16.50;;;1.50;99.90;;;;;;5015004;28;20469;-76
2022/03/23 05:46:38;;;;;;;25.27;17.83;;;1.60;99.90;;;;;;5014064;28;20949;-76
2022/03/23 05:49:04;;;;;;;26.37;18.77;;;1.60;99.90;;;;;;5008150;28;20501;-76
2022/03/23 05:51:31;;;;;;;24.20;18.40;;;1.70;99.90;;;;;;4998423;28;20465;-77
2022/03/23 05:53:58;;;;;;;21.93;17.90;;;1.70;99.90;;;;;;5001023;28;20435;-76
2022/03/23 05:56:25;;;;;;;26.30;19.07;;;1.80;99.90;;;;;;4997745;28;20557;-76
2022/03/23 05:58:52;;;;;;;21.37;17.93;;;1.80;99.90;;;;;;5010902;28;20458;-76
2022/03/23 06:01:18;;;;;;;26.63;18.73;;;2.00;99.90;;;;;;5015348;28;20496;-76
2022/03/23 06:03:49;;;;;;;21.27;16.63;;;2.20;99.90;;;;;;4999836;28;20499;-76
2022/03/23 06:06:16;;;;;;;22.30;18.80;;;2.30;99.90;;;;;;4999540;28;20440;-77
2022/03/23 06:08:43;;;;;;;23.27;18.23;;;2.60;99.90;;;;;;4999141;28;20479;-76
2022/03/23 06:11:10;;;;;;;27.20;18.47;;;2.90;99.90;;;;;;5003012;28;20451;-76
2022/03/23 06:13:37;;;;;;;26.33;18.80;;;3.10;99.90;;;;;;5001855;28;20490;-77
2022/03/23 06:16:04;;;;;;;23.33;20.03;;;3.40;99.90;;;;;;5019175;28;20539;-76
2022/03/23 06:18:31;;;;;;;23.67;20.70;;;3.70;99.90;;;;;;5002114;28;20440;-76
2022/03/23 06:21:00;;;;;;;20.83;17.23;;;4.00;99.90;;;;;;5009129;28;20512;-76
2022/03/23 06:23:27;;;;;;;19.20;16.53;;;4.30;99.90;;;;;;5011052;28;20971;-77
2022/03/23 06:25:54;;;;;;;21.67;17.30;;;4.60;99.90;;;;;;5018010;28;20808;-77
2022/03/23 06:28:21;;;;;;;18.97;16.40;;;4.70;99.90;;;;;;5002596;28;20617;-77
2022/03/23 06:30:48;;;;;;;20.97;17.93;;;4.90;99.90;;;;;;5002839;28;20236;-77
2022/03/23 06:33:15;;;;;;;24.07;17.53;;;5.00;99.90;;;;;;5018745;28;20213;-77
2022/03/23 06:35:42;;;;;;;23.37;19.07;;;5.20;99.90;;;;;;5016154;28;20225;-77
2022/03/23 06:38:10;;;;;;;21.17;17.40;;;5.20;99.90;;;;;;5000668;28;20249;-77
2022/03/23 06:40:37;;;;;;;23.83;18.23;;;5.30;99.90;;;;;;5017887;28;20697;-76
2022/03/23 06:43:04;;;;;;;22.90;18.37;;;5.40;99.90;;;;;;5002679;28;20238;-76
2022/03/23 06:45:31;;;;;;;22.87;17.20;;;5.50;99.90;;;;;;5003538;28;20194;-77
2022/03/23 06:47:58;;;;;;;23.00;18.77;;;5.60;99.90;;;;;;5008020;28;20662;-77
2022/03/23 06:50:25;;;;;;;21.30;17.60;;;5.80;99.90;;;;;;5006182;28;20205;-76
2022/03/23 06:52:52;;;;;;;22.80;17.83;;;5.90;99.90;;;;;;5005697;28;20205;-77
2022/03/23 06:55:20;;;;;;;21.90;17.63;;;6.10;99.90;;;;;;4999259;28;20572;-76
2022/03/23 06:57:47;;;;;;;24.23;18.20;;;6.00;99.90;;;;;;5005009;28;20195;-77
2022/03/23 07:00:14;;;;;;;23.83;18.07;;;6.10;99.90;;;;;;4998531;28;20697;-77
2022/03/23 07:02:42;;;;;;;22.47;18.23;;;6.40;99.90;;;;;;5013518;28;20222;-77
2022/03/23 07:05:09;;;;;;;21.10;15.30;;;6.70;99.90;;;;;;4996619;28;20201;-76
2022/03/23 07:07:36;;;;;;;18.47;13.87;;;7.00;99.90;;;;;;5004817;28;20281;-77
2022/03/23 07:10:03;;;;;;;21.93;14.87;;;7.30;99.90;;;;;;5004003;28;20206;-77
2022/03/23 07:12:31;;;;;;;21.17;15.57;;;7.70;99.90;;;;;;4998115;28;20210;-77
2022/03/23 07:14:59;;;;;;;20.63;14.97;;;8.10;99.90;;;;;;5009796;28;20255;-77
2022/03/23 07:17:26;;;;;;;20.37;17.93;;;8.30;99.90;;;;;;4997798;28;20245;-77
2022/03/23 07:19:53;;;;;;;21.50;15.77;;;8.60;99.90;;;;;;5005429;28;20248;-78
2022/03/23 07:22:20;;;;;;;20.17;17.03;;;9.00;99.90;;;;;;4996375;28;20233;-77
2022/03/23 07:24:47;;;;;;;26.67;17.47;;;9.30;99.90;;;;;;5005478;28;20224;-77
2022/03/23 07:27:14;;;;;;;21.03;16.40;;;9.50;99.90;;;;;;5001972;28;20205;-77
2022/03/23 07:29:42;;;;;;;22.17;17.10;;;9.80;99.90;;;;;;5000526;28;20279;-77
2022/03/23 07:32:10;;;;;;;20.30;16.93;;;9.90;99.90;;;;;;5004301;28;20284;-78
2022/03/23 07:34:36;;;;;;;18.57;15.40;;;10.10;99.90;;;;;;4997616;28;20275;-77
2022/03/23 07:37:04;;;;;;;16.87;13.93;;;10.50;99.90;;;;;;5009135;28;20618;-78
2022/03/23 07:39:33;;;;;;;17.27;14.87;;;10.80;99.90;;;;;;4997598;28;20197;-77
2022/03/23 07:42:02;;;;;;;18.77;15.10;;;10.90;99.90;;;;;;5003286;28;20220;-78
2022/03/23 07:44:33;;;;;;;20.17;14.53;;;11.10;99.90;;;;;;5001711;28;20201;-77
2022/03/23 07:47:02;;;;;;;17.77;15.00;;;11.30;99.90;;;;;;5017188;28;20205;-77
2022/03/23 07:49:30;;;;;;;19.83;14.50;;;11.50;99.90;;;;;;5009436;28;20206;-77
2022/03/23 07:52:02;;;;;;;17.13;14.20;;;11.80;99.90;;;;;;5001441;28;20225;-77
2022/03/23 07:54:29;;;;;;;18.23;15.13;;;12.00;99.90;;;;;;5017689;28;20210;-77
2022/03/23 07:56:55;;;;;;;18.20;14.43;;;12.20;99.50;;;;;;5015798;28;20227;-78
2022/03/23 07:59:22;;;;;;;22.13;14.10;;;12.40;99.40;;;;;;5001995;28;20219;-78
2022/03/23 08:13:27;;;;;;;17.27;12.90;;;13.40;97.70;;;;;;4918185;29;20412;-83
2022/03/23 08:43:41;;;;;;;15.80;11.23;;;15.00;94.90;;;;;;4824196;29;20342;-80
2022/03/23 09:02:48;;;;;;;13.63;12.10;;;15.60;93.60;;;;;;4158684;29;21284577;-82
2022/03/23 09:26:19;;;;;;;;;;;;;;;;;;;;;
2022/03/23 10:40:25;;;;;;;;;;;;;;;;;;;;;
2022/03/23 11:07:51;;;;;;;13.80;11.00;;;16.30;74.80;;;;;;4925620;29;20720;-83
2022/03/23 11:30:24;;;;;;;10.77;8.17;;;16.30;71.80;;;;;;4970538;23;20353;-80
2022/03/23 11:32:51;;;;;;;9.27;7.63;;;16.20;69.50;;;;;;5005393;28;20202;-79
2022/03/23 11:35:18;;;;;;;9.90;7.90;;;16.20;71.50;;;;;;5001750;28;20686;-80
2022/03/23 11:37:48;;;;;;;7.37;6.40;;;16.30;72.30;;;;;;5006052;28;20649;-80
2022/03/23 11:40:15;;;;;;;8.27;7.00;;;16.30;69.10;;;;;;5005363;28;20232;-80
2022/03/23 11:42:42;;;;;;;9.20;7.73;;;16.30;68.80;;;;;;5003779;28;20269;-80
2022/03/23 11:45:13;;;;;;;7.77;6.93;;;16.40;69.70;;;;;;5003598;28;20609;-79
2022/03/23 11:47:51;;;;;;;8.77;7.70;;;16.40;70.10;;;;;;5004783;28;20214;-79
2022/03/23 11:50:26;;;;;;;11.50;7.83;;;16.40;70.60;;;;;;5003435;28;20253;-80
2022/03/23 11:52:58;;;;;;;8.87;7.10;;;16.40;70.50;;;;;;4997218;28;20210;-80
2022/03/23 11:55:39;;;;;;;11.20;7.90;;;16.50;69.40;;;;;;5007970;28;20210;-80
2022/03/23 11:58:17;;;;;;;8.53;6.83;;;16.40;66.80;;;;;;5000568;28;20204;-79
2022/03/23 12:00:46;;;;;;;7.37;6.67;;;16.50;66.50;;;;;;5007196;28;20230;-80
2022/03/23 12:03:16;;;;;;;8.57;7.03;;;16.50;65.80;;;;;;5001901;28;20263;-79
2022/03/23 12:05:51;;;;;;;9.80;7.77;;;16.50;66.30;;;;;;5005576;28;20236;-80
2022/03/23 12:08:49;;;;;;;11.83;8.27;;;16.40;65.90;;;;;;5002504;28;20310;-80
2022/03/23 12:11:37;;;;;;;8.00;7.20;;;16.40;65.90;;;;;;5001670;28;20224;-80
2022/03/23 12:14:06;;;;;;;9.43;7.87;;;16.40;64.90;;;;;;5004639;28;20207;-80
2022/03/23 12:17:05;;;;;;;7.93;6.97;;;16.50;64.60;;;;;;5002176;28;20250;-80
2022/03/23 12:19:52;;;;;;;8.23;7.23;;;16.50;63.90;;;;;;4997455;28;20218;-80
2022/03/23 12:22:43;;;;;;;8.27;7.30;;;16.60;64.50;;;;;;5008021;28;20227;-80
2022/03/23 12:25:16;;;;;;;8.53;7.63;;;16.70;65.50;;;;;;4998760;28;20262;-82
2022/03/23 12:27:52;;;;;;;10.10;7.33;;;16.70;63.00;;;;;;5004051;28;20229;-80
2022/03/23 12:30:35;;;;;;;10.57;7.67;;;16.70;61.60;;;;;;5021364;28;20236;-79
2022/03/23 12:33:10;;;;;;;11.53;8.30;;;16.70;63.10;;;;;;5004991;28;20629;-80
2022/03/23 12:35:39;;;;;;;9.10;7.27;;;16.70;62.40;;;;;;4995433;28;20196;-80
2022/03/23 12:38:18;;;;;;;8.47;7.50;;;16.70;63.80;;;;;;5003162;28;20197;-79
2022/03/23 12:40:50;;;;;;;9.60;8.00;;;16.80;63.50;;;;;;5004119;28;20646;-80
2022/03/23 12:43:39;;;;;;;8.17;7.33;;;16.90;63.90;;;;;;5000965;28;20204;-80
2022/03/23 12:46:18;;;;;;;11.37;8.23;;;16.90;62.50;;;;;;5007099;28;20192;-79
2022/03/23 13:00:25;;;;;;;8.97;7.57;;;17.00;63.50;;;;;;5007719;28;20705;-77
2022/03/23 13:03:18;;;;;;;9.90;8.10;;;16.90;63.50;;;;;;5001701;28;20219;-77
2022/03/23 13:06:07;;;;;;;10.23;6.80;;;17.00;63.00;;;;;;4962918;28;20736;-78
2022/03/23 13:08:47;;;;;;;8.60;7.47;;;17.00;64.50;;;;;;4989050;28;20733;-78
2022/03/23 13:11:16;;;;;;;8.43;6.80;;;17.10;63.70;;;;;;5001552;28;20225;-77
2022/03/23 13:13:49;;;;;;;8.13;7.03;;;17.10;64.20;;;;;;5004482;28;20270;-77
2022/03/23 13:16:18;;;;;;;9.23;6.80;;;17.10;64.60;;;;;;5000508;28;20212;-77
2022/03/23 13:18:46;;;;;;;12.23;8.20;;;17.20;63.90;;;;;;5001983;28;20271;-77
2022/03/23 13:21:18;;;;;;;11.90;7.70;;;17.20;63.80;;;;;;5003762;28;20216;-77
2022/03/23 13:23:48;;;;;;;11.83;8.33;;;17.30;63.90;;;;;;5007281;28;20223;-78
2022/03/23 13:26:17;;;;;;;11.30;7.93;;;17.30;63.90;;;;;;5005537;28;20255;-78
2022/03/23 13:28:47;;;;;;;9.63;8.43;;;17.30;62.80;;;;;;5006179;28;20195;-78
2022/03/23 13:31:15;;;;;;;9.50;8.37;;;17.30;63.30;;;;;;5007399;28;20227;-78
2022/03/23 13:33:44;;;;;;;11.03;9.37;;;17.40;63.00;;;;;;5005748;28;20196;-78
2022/03/23 13:36:14;;;;;;;12.30;8.63;;;17.30;62.80;;;;;;5005710;28;20661;-78
2022/03/23 13:38:43;;;;;;;10.27;8.60;;;17.30;64.50;;;;;;5005404;28;20210;-78
2022/03/23 13:43:58;;;;;;;12.20;7.93;;;17.40;64.60;;;;;;5007471;28;20794;-78
2022/03/23 13:46:26;;;;;;;9.83;8.00;;;17.40;63.50;;;;;;5006523;28;20216;-78
2022/03/23 13:48:58;;;;;;;10.70;8.67;;;17.40;64.50;;;;;;5006940;28;20203;-78
2022/03/23 13:51:27;;;;;;;12.00;9.23;;;17.40;63.20;;;;;;5006591;28;20198;-78
2022/03/23 13:53:58;;;;;;;9.90;8.83;;;17.50;64.20;;;;;;5004949;28;20208;-78
2022/03/23 13:56:28;;;;;;;9.83;8.30;;;17.50;65.00;;;;;;5006232;28;20211;-77
2022/03/23 13:58:56;;;;;;;9.77;8.00;;;17.60;66.10;;;;;;5005563;28;20200;-78
2022/03/23 14:01:23;;;;;;;12.47;8.00;;;17.60;65.30;;;;;;5004831;28;20247;-78
2022/03/23 14:03:52;;;;;;;11.70;9.00;;;17.60;66.50;;;;;;5006781;28;20196;-78
2022/03/23 14:06:20;;;;;;;11.13;9.23;;;17.60;65.80;;;;;;5006111;28;20744;-78
2022/03/23 14:08:53;;;;;;;13.17;10.37;;;17.60;65.20;;;;;;5007178;28;20275;-78
2022/03/23 14:11:47;;;;;;;10.23;8.80;;;17.60;63.70;;;;;;5003291;28;20225;-78
2022/03/23 14:14:13;;;;;;;16.43;10.30;;;17.50;64.70;;;;;;5005875;28;20633;-78
2022/03/23 14:16:40;;;;;;;13.53;10.07;;;17.50;64.30;;;;;;4999307;28;20289;-78
2022/03/23 14:19:08;;;;;;;10.70;9.57;;;17.50;64.70;;;;;;5006001;28;20557;-78
2022/03/23 14:21:36;;;;;;;12.40;9.50;;;17.50;65.40;;;;;;5005992;28;20224;-78
2022/03/23 14:24:03;;;;;;;14.30;9.93;;;17.60;65.50;;;;;;5005197;28;20708;-78
2022/03/23 14:26:36;;;;;;;14.10;10.43;;;17.60;65.80;;;;;;5000859;28;20673;-77
2022/03/23 14:29:23;;;;;;;14.27;11.10;;;17.50;64.60;;;;;;5008249;28;20212;-78
2022/03/23 14:31:51;;;;;;;11.57;10.37;;;17.50;63.30;;;;;;5001515;28;20667;-78
2022/03/23 14:34:26;;;;;;;13.37;10.53;;;17.50;64.10;;;;;;5008354;28;20204;-78
2022/03/23 14:37:07;;;;;;;14.40;10.87;;;17.50;63.70;;;;;;5002121;28;20203;-78
2022/03/23 14:39:43;;;;;;;11.90;10.53;;;17.50;63.10;;;;;;4995490;28;20216;-78
2022/03/23 14:42:12;;;;;;;12.50;10.00;;;17.50;64.50;;;;;;5003524;28;20746;-78
2022/03/23 14:44:44;;;;;;;11.60;10.40;;;17.60;63.10;;;;;;5028550;28;20197;-78
2022/03/23 14:47:11;;;;;;;12.67;10.33;;;17.60;64.70;;;;;;5003430;28;20221;-78
2022/03/23 14:49:39;;;;;;;11.43;10.23;;;17.60;62.30;;;;;;5006065;28;20705;-78
2022/03/23 14:52:08;;;;;;;11.00;9.17;;;17.60;63.40;;;;;;5004003;28;20200;-78
2022/03/23 14:54:37;;;;;;;10.80;8.97;;;17.60;63.60;;;;;;4997944;28;20649;-78
2022/03/23 14:57:04;;;;;;;13.50;10.47;;;17.60;63.70;;;;;;4990433;28;20224;-80
2022/03/23 14:59:32;;;;;;;10.73;9.67;;;17.60;64.40;;;;;;4991625;28;20697;-80
2022/03/23 15:02:00;;;;;;;13.00;10.63;;;17.70;64.40;;;;;;4999770;28;20777;-77
2022/03/23 15:04:27;;;;;;;15.10;10.70;;;17.60;63.40;;;;;;4992276;28;20220;-78
2022/03/23 15:15:10;;;;;;;12.70;10.97;;;17.60;65.20;;;;;;5014986;28;20224;-76
2022/03/23 15:17:38;;;;;;;11.93;10.70;;;17.60;63.40;;;;;;5002724;28;20228;-78
2022/03/23 15:20:06;;;;;;;11.33;10.33;;;17.60;65.10;;;;;;4998407;28;20221;-78
2022/03/23 15:22:34;;;;;;;12.20;10.97;;;17.60;66.00;;;;;;5001389;28;20692;-78
2022/03/23 15:25:00;;;;;;;12.87;11.57;;;17.60;66.20;;;;;;4998781;28;20204;-79
2022/03/23 15:27:27;;;;;;;12.47;11.30;;;17.60;65.50;;;;;;4994783;28;20200;-77
2022/03/23 15:29:54;;;;;;;18.00;14.23;;;17.60;66.50;;;;;;5001306;28;20595;-79
2022/03/23 15:32:21;;;;;;;13.40;12.10;;;17.50;64.60;;;;;;4994996;28;20198;-80
2022/03/23 15:34:50;;;;;;;13.33;12.03;;;17.50;65.60;;;;;;4990969;28;20249;-79
2022/03/23 15:37:20;;;;;;;12.67;11.37;;;17.50;65.90;;;;;;4999840;28;20219;-78
2022/03/23 15:39:48;;;;;;;13.87;12.53;;;17.40;67.20;;;;;;4998279;28;20228;-80
2022/03/23 15:43:03;;;;;;;13.63;12.33;;;17.40;67.30;;;;;;5003881;28;20217;-78
2022/03/23 15:45:05;;;;;;;15.87;12.23;;;17.40;67.60;;;;;;4985518;28;20202;-79
2022/03/23 15:47:32;;;;;;;12.40;10.83;;;17.30;67.80;;;;;;5001245;28;20235;-78
2022/03/23 15:50:00;;;;;;;14.33;11.50;;;17.30;69.00;;;;;;5006523;28;20712;-79
2022/03/23 15:52:27;;;;;;;12.87;11.30;;;17.30;68.10;;;;;;5001623;28;20580;-78
2022/03/23 15:54:54;;;;;;;12.40;9.90;;;17.20;68.60;;;;;;4989286;28;20199;-78
2022/03/23 15:57:21;;;;;;;12.03;10.13;;;17.20;69.90;;;;;;4984733;28;20233;-77
2022/03/23 15:59:49;;;;;;;12.83;11.53;;;17.10;70.40;;;;;;4990448;28;20232;-79
2022/03/23 16:02:16;;;;;;;15.10;10.90;;;17.10;69.40;;;;;;4987958;28;20313;-77
2022/03/23 16:04:43;;;;;;;16.30;10.60;;;17.00;70.10;;;;;;4991408;28;20704;-77
2022/03/23 16:07:11;;;;;;;12.80;10.93;;;17.00;71.30;;;;;;4986348;28;20684;-78
2022/03/23 16:09:37;;;;;;;13.20;10.80;;;17.00;72.60;;;;;;4991912;28;20279;-77
2022/03/23 16:12:05;;;;;;;12.17;9.90;;;16.90;71.60;;;;;;4990650;28;20240;-77
2022/03/23 16:14:32;;;;;;;12.00;10.73;;;16.80;72.10;;;;;;4991135;28;20204;-77
2022/03/23 16:16:59;;;;;;;12.17;10.87;;;16.80;72.10;;;;;;4989926;28;20208;-77
2022/03/23 16:19:26;;;;;;;13.13;10.07;;;16.80;71.70;;;;;;4985029;28;20224;-77
2022/03/23 16:21:52;;;;;;;13.13;11.30;;;16.70;72.60;;;;;;4983655;28;20666;-77
2022/03/23 16:24:21;;;;;;;15.47;10.90;;;16.70;72.60;;;;;;4986477;28;20204;-77
2022/03/23 16:26:47;;;;;;;10.87;9.77;;;16.60;73.90;;;;;;5011081;28;20213;-77
2022/03/23 16:29:14;;;;;;;11.27;9.93;;;16.60;73.80;;;;;;4982917;28;20204;-78
2022/03/23 16:31:41;;;;;;;12.20;10.60;;;16.50;75.00;;;;;;4988994;28;20251;-77